Terminal Aerodrome Forecast
Issued by NWS Grand Forks, ND

Home | Current Version | Previous Version | Text Only | Print | Product List | Glossary On
Versions: 1 2 3 4 5 6 7 8 9 10 11 12 13 14 15 16 17 18 19 20 21 22
000
FTUS43 KFGF 312007 AAB
TAFGFK
TAF AMD
KGFK 312007Z 3120/0118 22017G24KT P6SM BKN045
     FM312300 20013G20KT P6SM VCSH BKN050
     FM010400 22007KT P6SM VCSH BKN020
     FM010600 22007KT P6SM -SHRA OVC015
     FM010800 25007KT P6SM -SHRA OVC010
     FM011200 31010KT P6SM VCSH OVC008
     FM011600 31013KT P6SM VCSH OVC015=

USA.gov is the U.S. government's official web portal to all federal, state and local government web resources and services.